createdAt,value
2019-02-07T00:00:22.382Z,99.90
2019-02-07T00:02:50.789Z,99.90
2019-02-07T00:05:19.207Z,99.90
2019-02-07T00:07:47.677Z,99.90
2019-02-07T00:10:18.685Z,99.90
2019-02-07T00:12:47.107Z,99.90
2019-02-07T00:15:16.218Z,99.90
2019-02-07T00:17:44.635Z,99.90
2019-02-07T00:20:15.838Z,99.90
2019-02-07T00:22:44.239Z,99.90
2019-02-07T00:25:12.763Z,99.90
2019-02-07T00:27:41.169Z,99.90
2019-02-07T00:30:15.498Z,99.90
2019-02-07T00:32:43.894Z,99.90
2019-02-07T00:35:12.438Z,99.90
2019-02-07T00:37:40.958Z,99.90
2019-02-07T00:40:15.089Z,99.90
2019-02-07T00:42:44.498Z,99.90
2019-02-07T00:45:14.933Z,99.90
2019-02-07T00:47:43.412Z,99.90
2019-02-07T00:50:14.741Z,99.90
2019-02-07T00:52:43.247Z,99.90
2019-02-07T00:55:32.522Z,99.90
2019-02-07T00:58:00.926Z,99.90
2019-02-07T01:00:30.903Z,99.90
2019-02-07T01:02:59.309Z,99.90
2019-02-07T01:05:27.865Z,99.90
2019-02-07T01:07:56.404Z,99.90
2019-02-07T01:10:27.223Z,99.90
2019-02-07T01:12:55.794Z,99.90
2019-02-07T01:15:25.246Z,99.90
2019-02-07T01:17:53.645Z,99.90
2019-02-07T01:20:22.038Z,99.90
2019-02-07T01:22:50.590Z,99.90
2019-02-07T01:25:23.379Z,99.90
2019-02-07T01:27:52.499Z,99.90
2019-02-07T01:30:26.797Z,99.90
2019-02-07T01:32:55.257Z,99.90
2019-02-07T01:35:23.729Z,99.90
2019-02-07T01:37:53.019Z,99.90
2019-02-07T01:40:22.426Z,99.90
2019-02-07T01:42:51.177Z,99.90
2019-02-07T01:45:24.135Z,99.90
2019-02-07T01:47:52.602Z,99.90
2019-02-07T01:50:24.981Z,99.90
2019-02-07T01:52:53.653Z,99.90
2019-02-07T01:55:22.294Z,99.90
2019-02-07T01:57:50.842Z,99.90
2019-02-07T02:00:20.281Z,99.90
2019-02-07T02:02:49.474Z,99.90
2019-02-07T02:05:19.329Z,99.90
2019-02-07T02:07:48.653Z,99.90
2019-02-07T02:10:19.073Z,99.90
2019-02-07T02:12:47.733Z,99.90
2019-02-07T02:15:24.424Z,99.90
2019-02-07T02:17:49.039Z,99.90
2019-02-07T02:20:19.390Z,99.90
2019-02-07T02:22:48.161Z,99.90
2019-02-07T02:25:16.695Z,99.90
2019-02-07T02:27:45.166Z,99.90
2019-02-07T02:30:19.419Z,99.90
2019-02-07T02:32:47.829Z,99.90
2019-02-07T02:35:16.306Z,99.90
2019-02-07T02:37:44.990Z,99.90
2019-02-07T02:40:13.731Z,99.90
2019-02-07T02:42:42.124Z,99.90
2019-02-07T02:45:16.531Z,99.90
2019-02-07T02:47:44.987Z,99.90
2019-02-07T02:50:16.138Z,99.90
2019-02-07T02:52:45.014Z,99.90
2019-02-07T02:55:15.195Z,99.90
2019-02-07T02:57:43.590Z,99.90
2019-02-07T03:00:16.576Z,99.90
2019-02-07T03:02:46.617Z,99.90
2019-02-07T03:05:19.636Z,99.90
2019-02-07T03:08:01.542Z,99.90
2019-02-07T03:10:31.894Z,99.90
2019-02-07T03:13:01.934Z,99.90
2019-02-07T03:15:49.341Z,99.90
2019-02-07T03:18:24.867Z,99.90
2019-02-07T03:20:55.373Z,99.90
2019-02-07T03:23:41.746Z,99.90
2019-02-07T03:26:28.495Z,99.90
2019-02-07T03:29:01.499Z,99.90
2019-02-07T03:31:49.807Z,99.90
2019-02-07T03:34:19.845Z,99.90
2019-02-07T03:36:56.253Z,99.90
2019-02-07T03:39:26.285Z,99.90
2019-02-07T03:42:05.967Z,99.90
2019-02-07T03:44:41.762Z,99.90
2019-02-07T03:47:20.692Z,99.90
2019-02-07T03:49:50.730Z,99.90
2019-02-07T03:52:21.042Z,99.90
2019-02-07T03:55:06.331Z,99.90
2019-02-07T03:57:51.608Z,99.90
2019-02-07T04:00:27.652Z,99.90
2019-02-07T04:03:04.195Z,99.90
2019-02-07T04:05:50.580Z,99.90
2019-02-07T04:08:21.073Z,99.90
2019-02-07T04:10:53.862Z,99.90
2019-02-07T04:13:35.731Z,99.90
2019-02-07T04:16:15.397Z,99.90
2019-02-07T04:19:03.962Z,99.90
2019-02-07T04:21:50.178Z,99.90
2019-02-07T04:24:38.675Z,99.90
2019-02-07T04:27:20.763Z,99.90
2019-02-07T04:30:07.077Z,99.90
2019-02-07T04:32:53.695Z,99.90
2019-02-07T04:38:22.461Z,99.90
2019-02-07T04:40:52.713Z,99.90
2019-02-07T04:43:28.769Z,99.90
2019-02-07T04:46:26.578Z,99.90
2019-02-07T04:48:57.618Z,99.90
2019-02-07T04:51:43.723Z,99.90
2019-02-07T04:54:16.960Z,99.90
2019-02-07T04:56:49.741Z,99.90
2019-02-07T04:59:25.254Z,99.90
2019-02-07T05:02:07.306Z,99.90
2019-02-07T05:04:43.286Z,99.90
2019-02-07T05:07:25.870Z,99.90
2019-02-07T05:10:12.291Z,99.90
2019-02-07T05:12:51.354Z,99.90
2019-02-07T05:15:36.688Z,99.90
2019-02-07T05:18:09.763Z,99.90
2019-02-07T05:20:42.874Z,99.90
2019-02-07T05:23:12.935Z,99.90
2019-02-07T05:25:59.590Z,99.90
2019-02-07T05:28:30.008Z,99.90
2019-02-07T05:31:03.318Z,99.90
2019-02-07T05:33:48.507Z,99.90
2019-02-07T05:36:24.545Z,99.90
2019-02-07T05:38:54.666Z,99.90
2019-02-07T05:41:28.000Z,99.90
2019-02-07T05:44:04.273Z,99.90
2019-02-07T05:46:34.343Z,99.90
2019-02-07T05:49:13.730Z,99.90
2019-02-07T05:51:50.208Z,99.90
2019-02-07T05:54:26.341Z,99.90
2019-02-07T05:56:59.294Z,99.90
2019-02-07T05:59:45.592Z,99.90
2019-02-07T06:02:15.714Z,99.90
2019-02-07T06:05:04.243Z,99.90
2019-02-07T06:07:37.274Z,99.90
2019-02-07T06:10:10.815Z,99.90
2019-02-07T06:12:46.612Z,99.90
2019-02-07T06:15:19.771Z,99.90
2019-02-07T06:17:52.786Z,99.90
2019-02-07T06:20:39.537Z,99.90
2019-02-07T06:23:12.275Z,99.90
2019-02-07T06:25:57.432Z,99.90
2019-02-07T06:28:33.471Z,99.90
2019-02-07T06:31:03.514Z,99.90
2019-02-07T06:33:39.570Z,99.90
2019-02-07T06:36:09.601Z,99.90
2019-02-07T06:38:58.122Z,99.90
2019-02-07T06:41:30.879Z,99.90
2019-02-07T06:44:00.948Z,99.90
2019-02-07T06:46:36.815Z,99.90
2019-02-07T06:49:19.202Z,99.90
2019-02-07T06:51:51.890Z,99.90
2019-02-07T06:54:40.130Z,99.90
2019-02-07T06:57:17.058Z,99.90
2019-02-07T07:00:05.305Z,99.90
2019-02-07T07:02:38.376Z,99.90
2019-02-07T07:05:23.219Z,99.90
2019-02-07T07:07:53.282Z,99.90
2019-02-07T07:10:26.071Z,99.90
2019-02-07T07:12:59.058Z,99.90
2019-02-07T07:15:41.193Z,99.90
2019-02-07T07:18:17.258Z,99.90
2019-02-07T07:20:59.580Z,99.90
2019-02-07T07:23:32.502Z,99.90
2019-02-07T07:26:11.316Z,99.90
2019-02-07T07:28:57.910Z,99.90
2019-02-07T07:31:31.241Z,99.90
2019-02-07T07:34:01.306Z,99.90
2019-02-07T07:36:37.375Z,99.90
2019-02-07T07:39:18.466Z,99.90
2019-02-07T07:41:51.310Z,99.90
2019-02-07T07:44:27.331Z,99.90
2019-02-07T07:47:12.634Z,99.90
2019-02-07T07:49:51.781Z,99.90
2019-02-07T07:52:38.558Z,99.90
2019-02-07T07:55:09.254Z,99.90
2019-02-07T07:57:55.573Z,99.90
2019-02-07T08:00:31.838Z,99.90
2019-02-07T08:03:07.841Z,99.90
2019-02-07T08:05:37.962Z,99.90
2019-02-07T08:08:16.975Z,99.90
2019-02-07T08:10:47.006Z,99.90
2019-02-07T08:13:29.374Z,99.90
2019-02-07T08:15:59.413Z,99.90
2019-02-07T08:18:29.922Z,99.90
2019-02-07T08:20:59.967Z,99.90
2019-02-07T08:23:36.056Z,99.90
2019-02-07T08:26:12.027Z,99.90
2019-02-07T08:28:42.331Z,99.90
2019-02-07T08:31:24.501Z,99.90
2019-02-07T08:33:57.438Z,99.90
2019-02-07T08:36:27.491Z,99.90
2019-02-07T08:39:03.234Z,99.90
2019-02-07T08:41:48.442Z,99.90
2019-02-07T08:44:27.590Z,99.90
2019-02-07T08:47:00.606Z,99.90
2019-02-07T08:49:31.016Z,99.90
2019-02-07T08:52:17.510Z,99.90
2019-02-07T08:54:50.479Z,99.90
2019-02-07T08:57:37.114Z,99.90
2019-02-07T09:00:25.398Z,99.90
2019-02-07T09:03:13.322Z,99.90
2019-02-07T09:05:59.406Z,99.90
2019-02-07T09:08:32.214Z,99.90
2019-02-07T09:11:02.243Z,99.90
2019-02-07T09:13:32.313Z,99.90
2019-02-07T09:16:17.323Z,99.90
2019-02-07T09:18:59.662Z,99.90
2019-02-07T09:21:38.457Z,99.80
2019-02-07T09:24:25.050Z,99.80
2019-02-07T09:27:01.211Z,99.80
2019-02-07T09:29:36.955Z,99.50
2019-02-07T09:32:09.851Z,99.00
2019-02-07T09:34:42.987Z,98.70
2019-02-07T09:37:13.021Z,98.60
2019-02-07T09:39:43.080Z,98.70
2019-02-07T09:42:13.626Z,98.70
2019-02-07T09:44:49.663Z,98.60
2019-02-07T09:47:19.689Z,98.50
2019-02-07T09:49:58.545Z,98.40
2019-02-07T09:52:44.891Z,98.40
2019-02-07T09:55:33.326Z,98.20
2019-02-07T09:58:03.374Z,98.10
2019-02-07T10:00:33.420Z,98.00
2019-02-07T10:03:06.574Z,98.40
2019-02-07T10:05:42.614Z,98.10
2019-02-07T10:08:24.798Z,98.00
2019-02-07T10:10:54.825Z,98.00
2019-02-07T10:13:33.434Z,98.00
2019-02-07T10:16:20.025Z,98.10
2019-02-07T10:19:02.070Z,98.30
2019-02-07T10:21:32.361Z,98.50
2019-02-07T10:24:20.435Z,98.60
2019-02-07T10:27:13.390Z,98.80
2019-02-07T10:29:55.586Z,98.80
2019-02-07T10:32:25.733Z,98.90
2019-02-07T10:34:55.843Z,98.90
2019-02-07T10:37:31.922Z,98.60
2019-02-07T10:40:11.201Z,98.50
2019-02-07T10:42:56.378Z,98.50
2019-02-07T10:45:38.574Z,98.50
2019-02-07T10:48:24.958Z,98.60
2019-02-07T10:50:56.531Z,98.80
2019-02-07T10:53:27.055Z,98.70
2019-02-07T10:56:06.067Z,98.50
2019-02-07T10:58:47.965Z,98.40
2019-02-07T11:01:34.710Z,98.40
2019-02-07T11:04:21.383Z,98.20
2019-02-07T11:06:51.509Z,98.30
2019-02-07T11:09:30.119Z,98.50
2019-02-07T11:12:02.874Z,98.50
2019-02-07T11:14:41.621Z,98.60
2019-02-07T11:17:17.613Z,98.70
2019-02-07T11:19:53.797Z,98.80
2019-02-07T11:22:23.850Z,98.90
2019-02-07T11:25:02.678Z,98.90
2019-02-07T11:27:32.793Z,99.00
2019-02-07T11:30:17.938Z,99.10
2019-02-07T11:32:57.213Z,99.10
2019-02-07T11:35:43.786Z,99.10
2019-02-07T11:38:31.907Z,99.00
2019-02-07T11:41:02.042Z,99.20
2019-02-07T11:43:50.408Z,99.20
2019-02-07T11:46:38.527Z,99.30
2019-02-07T11:49:08.574Z,99.40
2019-02-07T11:51:41.710Z,99.50
2019-02-07T11:54:14.951Z,99.50
2019-02-07T11:57:01.502Z,99.50
2019-02-07T11:59:31.626Z,99.60
2019-02-07T12:02:08.835Z,99.80
2019-02-07T12:04:49.914Z,99.90
2019-02-07T12:07:19.952Z,99.90
2019-02-07T12:09:49.990Z,99.90
2019-02-07T12:12:36.294Z,99.90
2019-02-07T12:15:18.525Z,99.90
2019-02-07T12:17:51.281Z,99.90
2019-02-07T12:20:30.162Z,99.90
2019-02-07T12:23:16.490Z,99.90
2019-02-07T12:25:49.894Z,99.90
2019-02-07T12:28:36.310Z,99.90
2019-02-07T12:31:06.477Z,99.90
2019-02-07T12:33:48.274Z,99.90
2019-02-07T12:36:27.051Z,99.90
2019-02-07T12:39:05.669Z,99.90
2019-02-07T12:41:40.743Z,99.80
2019-02-07T12:44:13.714Z,99.60
2019-02-07T12:46:58.875Z,99.30
2019-02-07T12:49:29.566Z,99.20
2019-02-07T12:52:02.787Z,99.10
2019-02-07T12:54:41.586Z,98.90
2019-02-07T12:57:27.007Z,98.80
2019-02-07T13:02:54.542Z,98.50
2019-02-07T13:05:36.676Z,98.40
2019-02-07T13:08:09.622Z,98.40
2019-02-07T13:10:39.683Z,98.30
2019-02-07T13:13:27.725Z,98.20
2019-02-07T13:16:09.854Z,98.30
2019-02-07T13:18:42.888Z,98.50
2019-02-07T13:21:13.119Z,98.60
2019-02-07T13:23:59.529Z,98.70
2019-02-07T13:26:47.877Z,98.70
2019-02-07T13:29:36.438Z,98.90
2019-02-07T13:32:10.066Z,99.20
2019-02-07T13:34:56.726Z,99.40
2019-02-07T13:37:34.618Z,99.30
2019-02-07T13:40:24.286Z,99.10
2019-02-07T13:43:00.296Z,98.80
2019-02-07T13:45:46.786Z,98.90
2019-02-07T13:48:29.239Z,99.10
2019-02-07T13:51:08.104Z,99.10
2019-02-07T13:53:54.442Z,99.30
2019-02-07T13:56:36.867Z,99.10
2019-02-07T13:59:07.202Z,99.10
2019-02-07T14:01:40.125Z,99.20
2019-02-07T14:04:26.495Z,99.20
2019-02-07T14:07:02.746Z,99.30
2019-02-07T14:09:36.034Z,99.40
2019-02-07T14:12:12.087Z,99.50
2019-02-07T14:14:42.134Z,99.50
2019-02-07T14:17:12.162Z,99.60
2019-02-07T14:19:42.206Z,99.80
2019-02-07T14:22:12.262Z,99.80
2019-02-07T14:24:48.215Z,99.70
2019-02-07T14:27:18.267Z,99.70
2019-02-07T14:29:54.340Z,99.60
2019-02-07T14:32:27.477Z,99.60
2019-02-07T14:34:57.522Z,99.60
2019-02-07T14:37:44.158Z,99.70
2019-02-07T14:40:30.918Z,99.80
2019-02-07T14:43:00.958Z,99.90
2019-02-07T14:45:37.046Z,99.90
2019-02-07T14:48:05.706Z,99.90
2019-02-07T14:50:34.114Z,99.90
2019-02-07T14:53:02.991Z,99.90
2019-02-07T14:55:31.400Z,99.90
2019-02-07T14:57:59.866Z,99.90
2019-02-07T15:00:28.522Z,99.90
2019-02-07T15:02:56.947Z,99.90
2019-02-07T15:05:25.342Z,99.90
2019-02-07T15:07:53.841Z,99.90
2019-02-07T15:10:22.649Z,99.90
2019-02-07T15:12:51.051Z,99.90
2019-02-07T15:15:21.418Z,99.90
2019-02-07T15:17:49.906Z,99.90
2019-02-07T15:20:25.789Z,99.90
2019-02-07T15:22:48.562Z,99.90
2019-02-07T15:25:17.370Z,99.90
2019-02-07T15:27:45.786Z,99.90
2019-02-07T15:30:17.367Z,99.90
2019-02-07T15:32:45.827Z,99.90
2019-02-07T15:35:20.453Z,99.90
2019-02-07T15:37:48.898Z,99.90
2019-02-07T15:40:25.459Z,99.90
2019-02-07T15:42:53.848Z,99.90
2019-02-07T15:45:22.686Z,99.90
2019-02-07T15:47:51.083Z,99.90
2019-02-07T15:50:37.370Z,99.90
2019-02-07T15:52:58.842Z,99.90
2019-02-07T15:55:27.337Z,99.90
2019-02-07T15:57:55.821Z,99.90
2019-02-07T16:00:43.575Z,99.90
2019-02-07T16:03:14.322Z,99.90
2019-02-07T16:05:42.906Z,99.90
2019-02-07T16:08:11.366Z,99.90
2019-02-07T16:10:40.028Z,99.90
2019-02-07T16:13:08.422Z,99.90
2019-02-07T16:15:37.717Z,99.90
2019-02-07T16:18:06.554Z,99.90
2019-02-07T16:20:34.956Z,99.90
2019-02-07T16:23:03.366Z,99.90
2019-02-07T16:25:32.026Z,99.90
2019-02-07T16:28:00.422Z,99.90
2019-02-07T16:30:30.651Z,99.90
2019-02-07T16:32:59.151Z,99.90
2019-02-07T16:35:27.545Z,99.90
2019-02-07T16:37:55.971Z,99.90
2019-02-07T16:40:24.702Z,99.90
2019-02-07T16:42:53.345Z,99.90
2019-02-07T16:45:23.706Z,99.90
2019-02-07T16:47:52.168Z,99.90
2019-02-07T16:50:23.082Z,99.90
2019-02-07T16:52:51.727Z,99.90
2019-02-07T16:55:20.510Z,99.90
2019-02-07T16:57:49.050Z,99.90
2019-02-07T17:00:26.047Z,99.90
2019-02-07T17:02:55.168Z,99.90
2019-02-07T17:05:25.274Z,99.90
2019-02-07T17:07:54.055Z,99.90
2019-02-07T17:10:39.803Z,99.90
2019-02-07T17:13:11.204Z,99.90
2019-02-07T17:15:39.818Z,99.90
2019-02-07T17:18:08.299Z,99.90
2019-02-07T17:20:37.046Z,99.90
2019-02-07T17:23:05.578Z,99.90
2019-02-07T17:25:34.330Z,99.90
2019-02-07T17:28:02.790Z,99.90
2019-02-07T17:30:31.636Z,99.90
2019-02-07T17:33:00.279Z,99.90
2019-02-07T17:35:28.695Z,99.90
2019-02-07T17:37:57.096Z,99.90
2019-02-07T17:40:28.938Z,99.90
2019-02-07T17:42:57.422Z,99.90
2019-02-07T17:45:27.958Z,99.90
2019-02-07T17:47:56.479Z,99.90
2019-02-07T17:50:33.403Z,99.90
2019-02-07T17:53:04.842Z,99.90
2019-02-07T17:55:33.378Z,99.90
2019-02-07T17:58:01.978Z,99.90
2019-02-07T18:00:35.016Z,99.90
2019-02-07T18:03:04.273Z,99.90
2019-02-07T18:05:32.760Z,99.90
2019-02-07T18:08:01.223Z,99.90
2019-02-07T18:10:29.640Z,99.90
2019-02-07T18:12:58.022Z,99.90
2019-02-07T18:15:26.798Z,99.90
2019-02-07T18:17:55.271Z,99.90
2019-02-07T18:20:23.751Z,99.90
2019-02-07T18:22:52.138Z,99.90
2019-02-07T18:25:20.531Z,99.90
2019-02-07T18:27:48.999Z,99.90
2019-02-07T18:30:22.054Z,99.90
2019-02-07T18:32:51.195Z,99.90
2019-02-07T18:35:21.166Z,99.90
2019-02-07T18:37:49.571Z,99.90
2019-02-07T18:40:29.834Z,99.90
2019-02-07T18:42:58.251Z,99.90
2019-02-07T18:45:26.639Z,99.90
2019-02-07T18:47:55.041Z,99.90
2019-02-07T18:50:32.198Z,99.90
2019-02-07T18:53:00.651Z,99.90
2019-02-07T18:55:29.098Z,99.90
2019-02-07T18:57:58.018Z,99.90
2019-02-07T19:00:33.260Z,99.90
2019-02-07T19:03:02.110Z,99.90
2019-02-07T19:05:30.602Z,99.90
2019-02-07T19:07:59.147Z,99.90
2019-02-07T19:10:29.182Z,99.90
2019-02-07T19:12:58.041Z,99.90
2019-02-07T19:15:32.791Z,99.90
2019-02-07T19:18:01.275Z,99.90
2019-02-07T19:20:29.682Z,99.90
2019-02-07T19:22:58.071Z,99.90
2019-02-07T19:25:26.486Z,99.90
2019-02-07T19:27:55.261Z,99.90
2019-02-07T19:30:28.957Z,99.90
2019-02-07T19:32:57.811Z,99.90
2019-02-07T19:35:26.199Z,99.90
2019-02-07T19:37:54.586Z,99.90
2019-02-07T19:40:23.133Z,99.90
2019-02-07T19:42:51.603Z,99.90
2019-02-07T19:45:22.857Z,99.90
2019-02-07T19:47:51.246Z,99.90
2019-02-07T19:50:22.271Z,99.90
2019-02-07T19:52:50.722Z,99.90
2019-02-07T19:55:27.339Z,99.90
2019-02-07T19:57:57.447Z,99.90
2019-02-07T20:00:33.912Z,99.90
2019-02-07T20:03:02.469Z,99.90
2019-02-07T20:05:31.093Z,99.90
2019-02-07T20:07:59.506Z,99.90
2019-02-07T20:10:29.143Z,99.90
2019-02-07T20:12:58.071Z,99.90
2019-02-07T20:15:38.449Z,99.90
2019-02-07T20:18:08.387Z,99.90
2019-02-07T20:20:36.914Z,99.90
2019-02-07T20:23:05.604Z,99.90
2019-02-07T20:25:34.114Z,99.90
2019-02-07T20:28:02.590Z,99.90
2019-02-07T20:30:36.010Z,99.90
2019-02-07T20:33:06.352Z,99.90
2019-02-07T20:35:35.402Z,99.90
2019-02-07T20:38:04.645Z,99.90
2019-02-07T20:40:33.744Z,99.90
2019-02-07T20:43:02.730Z,99.90
2019-02-07T20:45:31.118Z,99.90
2019-02-07T20:47:59.510Z,99.90
2019-02-07T20:50:29.469Z,99.90
2019-02-07T20:52:58.330Z,99.90
2019-02-07T20:55:27.654Z,99.90
2019-02-07T20:57:56.393Z,99.90
2019-02-07T21:00:31.130Z,99.90
2019-02-07T21:02:59.980Z,99.90
2019-02-07T21:05:29.813Z,99.90
2019-02-07T21:07:58.769Z,99.90
2019-02-07T21:10:29.875Z,99.90
2019-02-07T21:12:58.263Z,99.90
2019-02-07T21:15:27.014Z,99.90
2019-02-07T21:17:55.411Z,99.90
2019-02-07T21:20:31.246Z,99.90
2019-02-07T21:23:00.875Z,99.90
2019-02-07T21:25:38.126Z,99.90
2019-02-07T21:28:07.830Z,99.90
2019-02-07T21:30:36.558Z,99.90
2019-02-07T21:33:06.203Z,99.90
2019-02-07T21:35:34.598Z,99.90
2019-02-07T21:38:03.726Z,99.90
2019-02-07T21:40:32.364Z,99.90
2019-02-07T21:43:01.102Z,99.90
2019-02-07T21:45:30.202Z,99.90
2019-02-07T21:47:59.848Z,99.90
2019-02-07T21:50:31.962Z,99.90
2019-02-07T21:53:00.502Z,99.90
2019-02-07T21:55:36.788Z,99.90
2019-02-07T21:58:07.031Z,99.90
2019-02-07T22:00:40.802Z,99.90
2019-02-07T22:03:10.976Z,99.90
2019-02-07T22:05:39.505Z,99.90
2019-02-07T22:08:08.766Z,99.90
2019-02-07T22:10:37.230Z,99.90
2019-02-07T22:13:06.387Z,99.90
2019-02-07T22:15:35.638Z,99.90
2019-02-07T22:18:04.558Z,99.90
2019-02-07T22:20:33.030Z,99.90
2019-02-07T22:23:01.415Z,99.90
2019-02-07T22:25:29.816Z,99.90
2019-02-07T22:27:58.202Z,99.90
2019-02-07T22:30:35.558Z,99.90
2019-02-07T22:33:05.787Z,99.90
2019-02-07T22:35:34.268Z,99.90
2019-02-07T22:38:02.654Z,99.90
2019-02-07T22:40:31.122Z,99.90
2019-02-07T22:43:00.550Z,99.90
2019-02-07T22:45:29.176Z,99.90
2019-02-07T22:47:57.626Z,99.90
2019-02-07T22:50:46.886Z,99.90
2019-02-07T22:53:15.289Z,99.90
2019-02-07T22:55:43.674Z,99.90
2019-02-07T22:58:12.074Z,99.90
2019-02-07T23:00:43.542Z,99.90
2019-02-07T23:03:17.495Z,99.90
2019-02-07T23:05:45.883Z,99.90
2019-02-07T23:08:14.417Z,99.90
2019-02-07T23:10:43.198Z,99.90
2019-02-07T23:13:11.725Z,99.90
2019-02-07T23:15:40.118Z,99.90
2019-02-07T23:18:09.362Z,99.90
2019-02-07T23:20:37.838Z,99.90
2019-02-07T23:23:08.650Z,99.90
2019-02-07T23:25:37.415Z,99.90
2019-02-07T23:28:06.551Z,99.90
2019-02-07T23:30:35.026Z,99.90
2019-02-07T23:33:04.702Z,99.90
2019-02-07T23:35:33.090Z,99.90
2019-02-07T23:38:01.554Z,99.90
2019-02-07T23:40:29.962Z,99.90
2019-02-07T23:42:58.726Z,99.90
2019-02-07T23:45:27.228Z,99.90
2019-02-07T23:47:55.622Z,99.90
2019-02-07T23:50:24.025Z,99.90
2019-02-07T23:52:52.418Z,99.90
2019-02-07T23:55:20.809Z,99.90
2019-02-07T23:57:49.342Z,99.90
